메인 페이지
METAR-TAF:

METAR-TAF

공항 :

블루필즈, 니카라과

위도: 12-00N, 경도: 083-46W, 고도: 5m

현재 날씨관측

예보는 28분 전, 16:00시(UTC)에 발표되었습니다.
4kt
온도 30°C
습도 75%
기압 1017 hPa
시정 10km 이상
고도 1800ft 상공 구름 보통

METAR: MNBL 021600Z 10004KT 9999 SCT018 30/25 Q1017

시각: 10:28 (16:28 UTC)

예보

예보는 18 시간 48분 전, 21:40시(UTC)에 발표되었습니다.
예보 대상 시간: 02일 00시부터 02일 24시까지 (UTC)
동북동8kt
시정 10km 이상
고도 1800ft 상공 구름 많음
일시적
02일 06시부터 02일 11시까지 (UTC)
동북동6kt
고도 1800ft 상공 구름 보통
일시적
02일 13시부터 02일 22시까지 (UTC)
14kt, 순간 최대 풍속 24kt

TAF: MNBL 012140Z 0200/0224 06008KT 9999 BKN018 TEMPO 0206/0211 07006KT SCT018 TEMPO 0213/0222 08014G24KT

4,000개 이상의 공항 관측 자료 및 예보 (METAR 및 TAF 보고).

지도상에서 검색 가능한 기상관측소가 노란 점과 빨간 점으로 표시되어 있습니다.

기상관측소 명을 보려면 표시 위로 마우스를 이동하세요.

날씨 관측과 예보를 보려면 클릭하세요.

지도 변경 : 확대하려면 엑스 표시가 있는 녹색 버튼, 축소하려면 빼기 표시가 있는 녹색 버튼, 다음 페이지의 지도를 보려면 녹색 화살표를 클릭하세요.


METAR-TAF: